createdAt,value
2023-01-31T00:01:41.245Z,101546.34
2023-01-31T00:04:12.396Z,101531.50
2023-01-31T00:06:50.777Z,101543.56
2023-01-31T00:09:18.271Z,101539.34
2023-01-31T00:11:45.409Z,101543.56
2023-01-31T00:14:18.716Z,101544.47
2023-01-31T00:16:45.734Z,101530.53
2023-01-31T00:19:12.695Z,101532.34
2023-01-31T00:21:43.566Z,101518.28
2023-01-31T00:24:13.941Z,101542.75
2023-01-31T00:26:41.217Z,101535.00
2023-01-31T00:29:09.019Z,101552.59
2023-01-31T00:31:36.284Z,101546.44
2023-01-31T00:34:03.900Z,101553.41
2023-01-31T00:36:33.741Z,101563.94
2023-01-31T00:39:03.263Z,101555.09
2023-01-31T00:41:31.927Z,101559.66
2023-01-31T00:43:59.090Z,101555.25
2023-01-31T00:46:26.440Z,101572.81
2023-01-31T00:48:54.041Z,101569.34
2023-01-31T00:51:21.400Z,101565.06
2023-01-31T00:53:50.131Z,101568.34
2023-01-31T00:56:22.839Z,101564.16
2023-01-31T00:58:50.496Z,101564.44
2023-01-31T01:01:21.195Z,101567.78
2023-01-31T01:03:49.114Z,101569.94
2023-01-31T01:06:17.110Z,101575.28
2023-01-31T01:08:45.094Z,101575.34
2023-01-31T01:11:21.228Z,101579.75
2023-01-31T01:13:48.880Z,101577.38
2023-01-31T01:16:24.681Z,101577.38
2023-01-31T01:18:54.827Z,101578.47
2023-01-31T01:21:28.718Z,101584.97
2023-01-31T01:23:59.345Z,101574.59
2023-01-31T01:26:30.528Z,101585.31
2023-01-31T01:28:59.269Z,101585.25
2023-01-31T01:31:30.555Z,101599.63
2023-01-31T01:34:05.021Z,101581.97
2023-01-31T01:36:37.044Z,101601.22
2023-01-31T01:39:08.578Z,101593.25
2023-01-31T01:41:37.148Z,101593.06
2023-01-31T01:44:43.254Z,101587.88
2023-01-31T01:47:51.381Z,101599.28
2023-01-31T01:50:28.057Z,101590.59
2023-01-31T01:52:59.362Z,101598.66
2023-01-31T01:56:02.291Z,101611.13
2023-01-31T01:58:47.293Z,101607.78
2023-01-31T02:01:16.872Z,101597.56
2023-01-31T02:03:48.714Z,101599.13
2023-01-31T02:06:15.905Z,101607.03
2023-01-31T02:08:43.807Z,101597.81
2023-01-31T02:11:30.716Z,101615.19
2023-01-31T02:14:08.779Z,101612.53
2023-01-31T02:16:36.426Z,101612.78
2023-01-31T02:19:13.169Z,101596.97
2023-01-31T02:22:20.395Z,101619.88
2023-01-31T02:25:10.262Z,101622.53
2023-01-31T02:28:24.575Z,101628.69
2023-01-31T02:31:46.104Z,101639.28
2023-01-31T02:34:59.024Z,101620.88
2023-01-31T02:37:31.585Z,101636.34
2023-01-31T02:40:39.081Z,101644.28
2023-01-31T02:43:55.961Z,101644.28
2023-01-31T02:46:36.785Z,101634.84
2023-01-31T02:49:34.518Z,101653.25
2023-01-31T02:52:29.349Z,101656.00
2023-01-31T02:55:36.732Z,101640.19
2023-01-31T02:58:08.141Z,101630.75
2023-01-31T03:00:39.054Z,101631.00
2023-01-31T03:03:11.457Z,101610.75
2023-01-31T03:05:39.385Z,101628.41
2023-01-31T03:08:08.024Z,101623.41
2023-01-31T03:11:03.168Z,101613.09
2023-01-31T03:13:47.561Z,101632.56
2023-01-31T03:16:46.545Z,101622.13
2023-01-31T03:20:05.502Z,101617.06
2023-01-31T03:22:41.268Z,101603.97
2023-01-31T03:25:12.396Z,101612.94
2023-01-31T03:27:47.700Z,101604.97
2023-01-31T03:30:24.231Z,101610.19
2023-01-31T03:33:00.887Z,101609.38
2023-01-31T03:35:31.916Z,101614.00
2023-01-31T03:38:16.436Z,101604.44
2023-01-31T03:40:53.699Z,101594.97
2023-01-31T03:43:51.119Z,101599.19
2023-01-31T03:46:28.268Z,101583.19
2023-01-31T03:48:58.235Z,101578.78
2023-01-31T03:51:29.390Z,101579.63
2023-01-31T03:54:05.714Z,101578.78
2023-01-31T03:56:44.245Z,101584.81
2023-01-31T03:59:19.950Z,101561.47
2023-01-31T04:01:50.125Z,101569.91
2023-01-31T04:04:30.182Z,101566.09
2023-01-31T04:06:57.526Z,101564.34
2023-01-31T04:09:24.850Z,101554.69
2023-01-31T04:11:51.834Z,101568.53
2023-01-31T04:14:19.564Z,101568.38
2023-01-31T04:16:46.696Z,101563.94
2023-01-31T04:19:13.666Z,101541.31
2023-01-31T04:21:40.575Z,101538.63
2023-01-31T04:24:09.492Z,101532.25
2023-01-31T04:26:36.899Z,101540.00
2023-01-31T04:29:04.745Z,101546.06
2023-01-31T04:31:32.457Z,101532.69
2023-01-31T04:33:59.795Z,101536.94
2023-01-31T04:36:27.574Z,101541.16
2023-01-31T04:38:54.473Z,101546.50
2023-01-31T04:41:21.471Z,101539.53
2023-01-31T04:43:48.575Z,101545.66
2023-01-31T04:46:15.629Z,101534.94
2023-01-31T04:48:42.775Z,101534.78
2023-01-31T04:51:10.144Z,101528.59
2023-01-31T04:53:37.116Z,101517.19
2023-01-31T04:56:05.824Z,101523.38
2023-01-31T04:58:32.868Z,101528.38
2023-01-31T05:00:59.847Z,101515.22
2023-01-31T05:03:26.975Z,101518.53
2023-01-31T05:05:53.914Z,101521.81
2023-01-31T05:08:20.900Z,101516.66
2023-01-31T05:10:48.441Z,101533.19
2023-01-31T05:13:15.406Z,101522.56
2023-01-31T05:15:42.351Z,101520.03
2023-01-31T05:18:09.365Z,101508.41
2023-01-31T05:20:40.755Z,101515.41
2023-01-31T05:23:08.072Z,101498.56
2023-01-31T05:25:37.460Z,101516.53
2023-01-31T05:28:05.358Z,101504.28
2023-01-31T05:30:32.594Z,101491.84
2023-01-31T05:32:59.795Z,101494.38
2023-01-31T05:35:26.729Z,101494.81
2023-01-31T05:37:55.316Z,101494.59
2023-01-31T05:40:23.097Z,101498.13
2023-01-31T05:42:58.159Z,101503.28
2023-01-31T05:45:25.405Z,101501.53
2023-01-31T05:47:52.791Z,101499.78
2023-01-31T05:50:20.463Z,101490.84
2023-01-31T05:52:59.581Z,101498.50
2023-01-31T05:55:27.739Z,101490.75
2023-01-31T05:57:55.384Z,101501.06
2023-01-31T06:00:23.709Z,101487.75
2023-01-31T06:02:51.028Z,101494.81
2023-01-31T06:05:18.982Z,101494.75
2023-01-31T06:07:46.303Z,101490.22
2023-01-31T06:10:15.103Z,101474.22
2023-01-31T06:12:42.039Z,101455.00
2023-01-31T06:15:09.551Z,101466.16
2023-01-31T06:17:36.577Z,101468.72
2023-01-31T06:20:05.311Z,101469.44
2023-01-31T06:22:32.925Z,101450.28
2023-01-31T06:24:59.961Z,101473.84
2023-01-31T06:27:27.151Z,101461.56
2023-01-31T06:29:54.123Z,101464.16
2023-01-31T06:32:21.145Z,101467.56
2023-01-31T06:34:48.058Z,101471.94
2023-01-31T06:37:15.017Z,101473.78
2023-01-31T06:39:41.919Z,101468.44
2023-01-31T06:42:08.865Z,101457.13
2023-01-31T06:44:37.773Z,101465.72
2023-01-31T06:47:04.750Z,101461.06
2023-01-31T06:49:31.777Z,101453.13
2023-01-31T06:51:58.843Z,101454.22
2023-01-31T06:54:25.815Z,101457.34
2023-01-31T06:56:52.897Z,101440.59
2023-01-31T06:59:19.789Z,101440.59
2023-01-31T07:01:46.843Z,101441.41
2023-01-31T07:04:13.975Z,101442.22
2023-01-31T07:06:41.099Z,101434.44
2023-01-31T07:09:08.168Z,101431.78
2023-01-31T07:11:37.328Z,101421.75
2023-01-31T07:14:04.778Z,101411.38
2023-01-31T07:16:32.356Z,101418.25
2023-01-31T07:18:59.395Z,101404.47
2023-01-31T07:21:26.574Z,101413.00
2023-01-31T07:23:53.549Z,101411.25
2023-01-31T07:26:20.625Z,101399.00
2023-01-31T07:28:48.150Z,101380.72
2023-01-31T07:31:15.617Z,101406.81
2023-01-31T07:33:42.685Z,101383.25
2023-01-31T07:36:14.367Z,101398.19
2023-01-31T07:38:42.162Z,101388.38
2023-01-31T07:41:11.353Z,101383.78
2023-01-31T07:43:38.898Z,101398.75
2023-01-31T07:46:10.426Z,101381.94
2023-01-31T07:48:38.236Z,101373.19
2023-01-31T07:51:05.770Z,101389.63
2023-01-31T07:53:36.451Z,101374.53
2023-01-31T07:56:12.767Z,101373.66
2023-01-31T07:58:41.531Z,101372.59
2023-01-31T08:01:40.302Z,101365.53
2023-01-31T08:04:21.206Z,101350.19
2023-01-31T08:06:52.011Z,101331.06
2023-01-31T08:09:19.015Z,101324.88
2023-01-31T08:11:46.227Z,101329.66
2023-01-31T08:14:13.283Z,101321.78
2023-01-31T08:16:40.336Z,101322.94
2023-01-31T08:19:07.436Z,101331.41
2023-01-31T08:21:34.372Z,101335.66
2023-01-31T08:24:01.343Z,101334.66
2023-01-31T08:26:28.287Z,101329.59
2023-01-31T08:28:55.397Z,101333.59
2023-01-31T08:31:25.762Z,101316.94
2023-01-31T08:33:53.902Z,101310.72
2023-01-31T08:36:24.410Z,101321.13
2023-01-31T08:38:54.997Z,101296.59
2023-01-31T08:41:25.139Z,101299.91
2023-01-31T08:43:57.885Z,101293.66
2023-01-31T08:46:30.626Z,101268.97
2023-01-31T08:48:58.502Z,101304.25
2023-01-31T08:51:26.132Z,101284.84
2023-01-31T08:53:53.394Z,101275.91
2023-01-31T08:56:21.710Z,101294.38
2023-01-31T08:58:49.010Z,101283.69
2023-01-31T09:01:18.951Z,101279.22
2023-01-31T09:03:47.196Z,101288.75
2023-01-31T09:06:21.537Z,101272.91
2023-01-31T09:08:48.653Z,101268.50
2023-01-31T09:11:18.803Z,101270.97
2023-01-31T09:13:51.017Z,101268.06
2023-01-31T09:16:19.462Z,101262.88
2023-01-31T09:18:46.532Z,101248.59
2023-01-31T09:21:17.105Z,101245.03
2023-01-31T09:23:44.830Z,101249.31
2023-01-31T09:26:13.335Z,101233.59
2023-01-31T09:28:44.247Z,101236.19
2023-01-31T09:31:17.371Z,101237.00
2023-01-31T09:33:44.943Z,101221.03
2023-01-31T09:36:18.774Z,101228.09
2023-01-31T09:38:46.115Z,101227.88
2023-01-31T09:41:44.530Z,101231.34
2023-01-31T09:44:26.954Z,101227.88
2023-01-31T09:47:10.254Z,101223.28
2023-01-31T09:49:48.442Z,101230.25
2023-01-31T09:52:15.372Z,101209.72
2023-01-31T09:54:42.602Z,101200.84
2023-01-31T09:57:12.567Z,101201.34
2023-01-31T10:00:20.230Z,101213.47
2023-01-31T10:03:25.823Z,101197.19
2023-01-31T10:06:22.709Z,101194.19
2023-01-31T10:09:28.111Z,101202.69
2023-01-31T10:12:25.322Z,101202.56
2023-01-31T10:15:26.966Z,101205.81
2023-01-31T10:18:00.312Z,101210.22
2023-01-31T10:20:40.014Z,101199.44
2023-01-31T10:23:40.293Z,101195.03
2023-01-31T10:26:15.023Z,101189.56
2023-01-31T10:28:57.223Z,101171.56
2023-01-31T10:31:50.665Z,101177.75
2023-01-31T10:34:26.974Z,101168.66
2023-01-31T10:37:05.089Z,101160.56
2023-01-31T10:39:50.350Z,101159.53
2023-01-31T10:42:36.528Z,101155.84
2023-01-31T10:45:09.339Z,101148.56
2023-01-31T10:47:41.733Z,101144.94
2023-01-31T10:50:23.263Z,101143.03
2023-01-31T10:53:36.262Z,101139.44
2023-01-31T10:56:08.347Z,101129.94
2023-01-31T10:58:36.814Z,101115.78
2023-01-31T11:01:11.874Z,101144.69
2023-01-31T11:03:39.179Z,101119.41
2023-01-31T11:06:06.535Z,101133.31
2023-01-31T11:08:46.447Z,101118.75
2023-01-31T11:11:21.514Z,101127.44
2023-01-31T11:14:04.391Z,101118.69
2023-01-31T11:16:36.847Z,101124.19
2023-01-31T11:19:18.203Z,101150.50
2023-01-31T11:21:51.002Z,101136.22
2023-01-31T11:24:23.541Z,101107.28
2023-01-31T11:26:59.862Z,101131.75
2023-01-31T11:29:40.201Z,101122.09
2023-01-31T11:32:19.300Z,101117.44
2023-01-31T11:35:04.801Z,101117.44
2023-01-31T11:37:34.652Z,101117.59
2023-01-31T11:40:26.829Z,101126.47
2023-01-31T11:43:07.001Z,101111.22
2023-01-31T11:45:37.505Z,101090.16
2023-01-31T11:48:17.593Z,101104.00
2023-01-31T11:50:55.518Z,101078.53
2023-01-31T11:53:30.154Z,101085.44
2023-01-31T11:56:12.312Z,101071.38
2023-01-31T11:58:41.698Z,101049.28
2023-01-31T12:01:18.018Z,101072.72
2023-01-31T12:04:04.652Z,101070.03
2023-01-31T12:06:35.482Z,101074.44
2023-01-31T12:09:26.795Z,101056.59
2023-01-31T12:12:07.749Z,101041.97
2023-01-31T12:14:42.589Z,101049.84
2023-01-31T12:17:15.891Z,101062.31
2023-01-31T12:20:01.508Z,101058.94
2023-01-31T12:22:50.275Z,101052.44
2023-01-31T12:25:37.883Z,101051.66
2023-01-31T12:28:13.420Z,101065.81
2023-01-31T12:31:33.601Z,101058.81
2023-01-31T12:34:18.660Z,101063.13
2023-01-31T12:37:27.324Z,101050.97
2023-01-31T12:40:24.589Z,101066.69
2023-01-31T12:43:02.935Z,101072.09
2023-01-31T12:45:42.345Z,101052.78
2023-01-31T12:48:27.332Z,101062.66
2023-01-31T12:51:27.528Z,101058.44
2023-01-31T12:54:34.425Z,101063.84
2023-01-31T12:57:22.195Z,101060.56
2023-01-31T13:00:12.328Z,101056.53
2023-01-31T13:03:23.991Z,101046.88
2023-01-31T13:06:23.499Z,101059.38
2023-01-31T13:09:09.257Z,101068.19
2023-01-31T13:11:44.431Z,101045.38
2023-01-31T13:14:20.918Z,101017.28
2023-01-31T13:16:54.503Z,101053.16
2023-01-31T13:19:35.204Z,101048.63
2023-01-31T13:22:17.932Z,101044.41
2023-01-31T13:24:59.395Z,101035.59
2023-01-31T13:27:42.487Z,101040.50
2023-01-31T13:30:36.935Z,101035.34
2023-01-31T13:33:40.144Z,101037.84
2023-01-31T13:36:52.443Z,101032.34
2023-01-31T13:39:30.437Z,101019.09
2023-01-31T13:41:58.386Z,101021.66
2023-01-31T13:44:25.638Z,100999.59
2023-01-31T13:47:08.234Z,101017.81
2023-01-31T13:49:54.958Z,101016.63
2023-01-31T13:52:41.947Z,101002.34
2023-01-31T13:55:36.892Z,101010.94
2023-01-31T13:58:35.336Z,101012.59
2023-01-31T14:01:07.400Z,101007.34
2023-01-31T14:04:13.543Z,100992.59
2023-01-31T14:07:09.543Z,100990.63
2023-01-31T14:09:52.230Z,100985.13
2023-01-31T14:12:19.023Z,101001.94
2023-01-31T14:14:57.272Z,100982.19
2023-01-31T14:17:24.213Z,100973.94
2023-01-31T14:19:51.053Z,100977.19
2023-01-31T14:23:08.097Z,100990.31
2023-01-31T14:25:42.517Z,100980.41
2023-01-31T14:28:11.543Z,100994.38
2023-01-31T14:30:49.170Z,100993.53
2023-01-31T14:33:19.820Z,100994.06
2023-01-31T14:36:19.265Z,100988.44
2023-01-31T14:39:44.743Z,100984.63
2023-01-31T14:42:34.725Z,100985.41
2023-01-31T14:45:42.714Z,100999.56
2023-01-31T14:48:57.211Z,101006.31
2023-01-31T14:51:50.210Z,100990.94
2023-01-31T14:54:51.428Z,100987.13
2023-01-31T14:57:42.835Z,100988.06
2023-01-31T15:00:15.697Z,100983.50
2023-01-31T15:02:54.405Z,100993.09
2023-01-31T15:05:36.186Z,100999.97
2023-01-31T15:08:14.922Z,100979.34
2023-01-31T15:11:04.630Z,100977.38
2023-01-31T15:13:42.346Z,100962.09
2023-01-31T15:16:30.491Z,100980.63
2023-01-31T15:19:00.128Z,100971.66
2023-01-31T15:21:36.722Z,100961.63
2023-01-31T15:24:05.467Z,100956.28
2023-01-31T15:26:35.436Z,100955.00
2023-01-31T15:29:04.672Z,100961.88
2023-01-31T15:31:43.569Z,100948.59
2023-01-31T15:34:22.130Z,100959.78
2023-01-31T15:37:25.294Z,100980.19
2023-01-31T15:40:00.373Z,100971.16
2023-01-31T15:42:30.515Z,100990.69
2023-01-31T15:45:27.834Z,100979.13
2023-01-31T15:48:02.567Z,100987.72
2023-01-31T15:50:33.195Z,100987.72
2023-01-31T15:53:07.348Z,100998.19
2023-01-31T15:55:36.486Z,101007.00
2023-01-31T15:58:06.866Z,101030.91
2023-01-31T16:00:37.452Z,101017.31
2023-01-31T16:03:07.950Z,101034.28
2023-01-31T16:05:38.350Z,101024.50
2023-01-31T16:08:33.933Z,101012.84
2023-01-31T16:11:05.119Z,101025.56
2023-01-31T16:13:42.567Z,101045.16
2023-01-31T16:16:13.942Z,101026.41
2023-01-31T16:18:46.324Z,101011.56
2023-01-31T16:21:23.963Z,101022.16
2023-01-31T16:24:19.998Z,101032.88
2023-01-31T16:27:00.279Z,101034.13
2023-01-31T16:29:39.484Z,101030.78
2023-01-31T16:32:29.989Z,101014.88
2023-01-31T16:35:07.406Z,101016.41
2023-01-31T16:37:43.614Z,101012.88
2023-01-31T16:40:30.171Z,101021.06
2023-01-31T16:43:30.571Z,101019.88
2023-01-31T16:46:08.395Z,101027.47
2023-01-31T16:48:38.916Z,101015.72
2023-01-31T16:51:28.283Z,101036.72
2023-01-31T16:54:17.176Z,101038.06
2023-01-31T16:56:48.611Z,101040.34
2023-01-31T16:59:33.869Z,101045.84
2023-01-31T17:02:24.926Z,101054.44
2023-01-31T17:04:56.255Z,101054.78
2023-01-31T17:07:34.796Z,101047.00
2023-01-31T17:10:07.152Z,101031.56
2023-01-31T17:12:38.406Z,101053.56
2023-01-31T17:15:23.900Z,101044.09
2023-01-31T17:17:50.918Z,101058.44
2023-01-31T17:20:21.330Z,101053.13
2023-01-31T17:23:04.578Z,101061.25
2023-01-31T17:25:36.522Z,101052.38
2023-01-31T17:28:05.493Z,101064.81
2023-01-31T17:30:34.131Z,101054.13
2023-01-31T17:33:01.473Z,101056.53
2023-01-31T17:35:41.890Z,101056.53
2023-01-31T17:38:08.856Z,101071.56
2023-01-31T17:40:39.457Z,101068.00
2023-01-31T17:43:06.841Z,101055.66
2023-01-31T17:45:34.428Z,101056.34
2023-01-31T17:48:01.384Z,101052.47
2023-01-31T17:50:29.474Z,101052.47
2023-01-31T17:52:57.259Z,101050.19
2023-01-31T17:55:25.091Z,101077.41
2023-01-31T17:57:52.627Z,101057.03
2023-01-31T18:00:21.343Z,101063.84
2023-01-31T18:02:48.472Z,101062.22
2023-01-31T18:05:24.599Z,101054.44
2023-01-31T18:07:59.044Z,101064.22
2023-01-31T18:10:26.099Z,101068.09
2023-01-31T18:12:53.413Z,101075.97
2023-01-31T18:15:20.626Z,101085.63
2023-01-31T18:17:47.703Z,101095.63
2023-01-31T18:20:14.755Z,101086.81
2023-01-31T18:22:41.860Z,101087.91
2023-01-31T18:25:08.871Z,101075.44
2023-01-31T18:27:35.834Z,101069.38
2023-01-31T18:30:03.571Z,101082.75
2023-01-31T18:32:30.623Z,101090.00
2023-01-31T18:34:57.564Z,101081.38
2023-01-31T18:37:24.745Z,101084.91
2023-01-31T18:39:53.809Z,101096.56
2023-01-31T18:42:21.551Z,101090.06
2023-01-31T18:44:48.662Z,101086.81
2023-01-31T18:47:16.107Z,101090.31
2023-01-31T18:49:43.622Z,101104.72
2023-01-31T18:52:11.508Z,101084.09
2023-01-31T18:54:38.534Z,101093.69
2023-01-31T18:57:05.855Z,101089.38
2023-01-31T18:59:35.703Z,101098.16
2023-01-31T19:02:03.735Z,101107.13
2023-01-31T19:04:30.700Z,101099.28
2023-01-31T19:06:57.706Z,101107.53
2023-01-31T19:09:25.065Z,101101.16
2023-01-31T19:11:52.031Z,101125.00
2023-01-31T19:14:19.182Z,101118.94
2023-01-31T19:16:46.603Z,101115.72
2023-01-31T19:19:13.778Z,101127.31
2023-01-31T19:21:41.017Z,101122.19
2023-01-31T19:24:12.182Z,101131.16
2023-01-31T19:26:39.285Z,101113.03
2023-01-31T19:29:09.569Z,101129.22
2023-01-31T19:31:37.116Z,101135.59
2023-01-31T19:34:06.953Z,101145.25
2023-01-31T19:36:40.150Z,101144.41
2023-01-31T19:39:10.994Z,101148.25
2023-01-31T19:41:38.084Z,101158.13
2023-01-31T19:44:05.271Z,101163.63
2023-01-31T19:46:34.641Z,101168.97
2023-01-31T19:49:03.559Z,101160.34
2023-01-31T19:51:30.824Z,101163.88
2023-01-31T19:54:01.517Z,101161.19
2023-01-31T19:56:29.309Z,101155.16
2023-01-31T19:58:56.465Z,101155.00
2023-01-31T20:01:23.590Z,101161.44
2023-01-31T20:03:50.708Z,101150.97
2023-01-31T20:06:21.666Z,101177.22
2023-01-31T20:08:54.035Z,101157.75
2023-01-31T20:11:21.512Z,101166.88
2023-01-31T20:13:53.061Z,101178.25
2023-01-31T20:16:21.501Z,101161.44
2023-01-31T20:18:51.016Z,101157.91
2023-01-31T20:21:20.587Z,101169.31
2023-01-31T20:23:48.683Z,101164.03
2023-01-31T20:26:17.794Z,101158.94
2023-01-31T20:28:44.777Z,101154.44
2023-01-31T20:31:14.050Z,101154.44
2023-01-31T20:33:41.929Z,101168.81
2023-01-31T20:36:09.457Z,101154.75
2023-01-31T20:38:40.057Z,101171.41
2023-01-31T20:41:08.908Z,101158.84
2023-01-31T20:43:37.805Z,101158.94
2023-01-31T20:46:13.793Z,101161.84
2023-01-31T20:48:42.446Z,101153.44
2023-01-31T20:51:09.992Z,101152.66
2023-01-31T20:53:37.819Z,101153.72
2023-01-31T20:56:09.779Z,101147.91
2023-01-31T20:58:39.718Z,101155.88
2023-01-31T21:01:08.689Z,101164.94
2023-01-31T21:03:36.415Z,101167.72
2023-01-31T21:06:04.603Z,101158.06
2023-01-31T21:08:32.201Z,101164.47
2023-01-31T21:11:00.263Z,101159.13
2023-01-31T21:13:29.001Z,101157.47
2023-01-31T21:15:59.333Z,101162.91
2023-01-31T21:18:29.994Z,101153.16
2023-01-31T21:20:57.627Z,101149.06
2023-01-31T21:23:25.253Z,101156.06
2023-01-31T21:25:52.168Z,101163.13
2023-01-31T21:28:20.178Z,101157.13
2023-01-31T21:31:06.255Z,101159.81
2023-01-31T21:33:33.406Z,101151.09
2023-01-31T21:36:06.810Z,101165.94
2023-01-31T21:38:33.761Z,101154.47
2023-01-31T21:41:19.954Z,101150.00
2023-01-31T21:43:46.886Z,101134.94
2023-01-31T21:46:15.028Z,101154.25
2023-01-31T21:48:42.379Z,101145.53
2023-01-31T21:51:15.372Z,101157.94
2023-01-31T21:53:42.724Z,101155.34
2023-01-31T21:56:16.308Z,101151.88
2023-01-31T21:58:44.328Z,101148.41
2023-01-31T22:01:17.827Z,101149.50
2023-01-31T22:03:48.692Z,101165.31
2023-01-31T22:06:25.623Z,101162.75
2023-01-31T22:08:59.669Z,101160.22
2023-01-31T22:11:32.707Z,101161.16
2023-01-31T22:14:02.481Z,101159.50
2023-01-31T22:16:29.445Z,101148.13
2023-01-31T22:18:56.416Z,101149.13
2023-01-31T22:21:27.151Z,101157.13
2023-01-31T22:23:58.042Z,101158.97
2023-01-31T22:26:28.396Z,101160.66
2023-01-31T22:28:59.115Z,101146.59
2023-01-31T22:31:26.546Z,101164.28
2023-01-31T22:33:55.930Z,101142.19
2023-01-31T22:36:26.502Z,101143.78
2023-01-31T22:38:54.102Z,101147.47
2023-01-31T22:41:21.564Z,101135.22
2023-01-31T22:43:50.870Z,101135.22
2023-01-31T22:46:28.998Z,101138.09
2023-01-31T22:48:57.797Z,101140.63
2023-01-31T22:51:27.814Z,101139.84
2023-01-31T22:53:56.950Z,101150.44
2023-01-31T22:56:30.027Z,101139.53
2023-01-31T22:59:03.232Z,101135.00
2023-01-31T23:01:34.925Z,101133.19
2023-01-31T23:04:05.667Z,101130.38
2023-01-31T23:06:33.082Z,101123.50
2023-01-31T23:09:00.036Z,101144.59
2023-01-31T23:11:27.454Z,101126.84
2023-01-31T23:13:54.670Z,101120.50
2023-01-31T23:16:45.090Z,101129.28
2023-01-31T23:19:14.708Z,101129.19
2023-01-31T23:21:42.807Z,101127.47
2023-01-31T23:24:11.339Z,101117.69
2023-01-31T23:26:38.527Z,101109.72
2023-01-31T23:29:05.714Z,101102.50
2023-01-31T23:31:32.767Z,101100.88
2023-01-31T23:34:00.590Z,101091.03
2023-01-31T23:36:28.055Z,101084.16
2023-01-31T23:38:54.992Z,101091.59
2023-01-31T23:41:21.884Z,101087.38
2023-01-31T23:43:48.784Z,101081.88
2023-01-31T23:46:15.798Z,101089.75
2023-01-31T23:48:43.307Z,101080.09
2023-01-31T23:51:10.345Z,101087.22
2023-01-31T23:53:37.297Z,101079.28
2023-01-31T23:56:04.308Z,101066.88
2023-01-31T23:58:31.297Z,101073.06
